createdAt,value
2018-06-27T00:00:20.648Z,438.60
2018-06-27T00:01:20.724Z,426.90
2018-06-27T00:02:20.765Z,445.20
2018-06-27T00:03:20.829Z,432.60
2018-06-27T00:04:20.838Z,442.50
2018-06-27T00:05:20.910Z,451.30
2018-06-27T00:06:20.925Z,451.70
2018-06-27T00:07:20.995Z,441.20
2018-06-27T00:08:21.005Z,470.70
2018-06-27T00:09:21.057Z,442.50
2018-06-27T00:10:21.100Z,440.80
2018-06-27T00:11:21.163Z,439.30
2018-06-27T00:12:21.233Z,423.10
2018-06-27T00:13:21.265Z,441.80
2018-06-27T00:14:21.334Z,425.90
2018-06-27T00:15:21.350Z,420.80
2018-06-27T00:16:21.413Z,497.80
2018-06-27T00:17:21.445Z,428.50
2018-06-27T00:18:21.505Z,432.00
2018-06-27T00:19:21.539Z,431.70
2018-06-27T00:20:21.550Z,443.20
2018-06-27T00:21:21.604Z,425.40
2018-06-27T00:22:21.648Z,419.70
2018-06-27T00:23:21.738Z,419.20
2018-06-27T00:24:21.755Z,437.10
2018-06-27T00:25:21.826Z,429.50
2018-06-27T00:26:21.841Z,424.00
2018-06-27T00:27:21.934Z,419.40
2018-06-27T00:28:21.940Z,392.50
2018-06-27T00:29:22.027Z,404.30
2018-06-27T00:30:22.024Z,432.90
2018-06-27T00:31:22.086Z,432.50
2018-06-27T00:32:22.127Z,432.50
2018-06-27T00:33:22.167Z,418.00
2018-06-27T00:34:22.224Z,423.50
2018-06-27T00:35:22.257Z,423.80
2018-06-27T00:36:22.333Z,430.80
2018-06-27T00:37:22.383Z,428.20
2018-06-27T00:38:22.425Z,456.50
2018-06-27T00:39:22.436Z,446.20
2018-06-27T00:40:22.522Z,418.60
2018-06-27T00:41:22.563Z,418.60
2018-06-27T00:42:22.812Z,450.60
2018-06-27T00:43:22.626Z,408.80
2018-06-27T00:44:22.681Z,393.50
2018-06-27T00:45:22.736Z,403.30
2018-06-27T00:46:22.784Z,395.80
2018-06-27T00:47:22.791Z,429.40
2018-06-27T00:48:22.882Z,400.20
2018-06-27T00:49:22.922Z,398.30
2018-06-27T00:50:22.957Z,389.20
2018-06-27T00:51:23.012Z,389.30
2018-06-27T00:52:23.049Z,370.20
2018-06-27T00:53:23.108Z,351.50
2018-06-27T00:54:23.157Z,350.30
2018-06-27T00:55:23.202Z,365.70
2018-06-27T00:56:23.233Z,364.70
2018-06-27T00:57:23.297Z,362.00
2018-06-27T00:58:23.306Z,369.00
2018-06-27T00:59:23.382Z,355.00
2018-06-27T01:00:23.438Z,370.30
2018-06-27T01:01:23.482Z,352.50
2018-06-27T01:02:23.521Z,356.30
2018-06-27T01:03:23.549Z,365.20
2018-06-27T01:04:23.599Z,356.70
2018-06-27T01:05:23.643Z,365.70
2018-06-27T01:06:23.718Z,377.60
2018-06-27T01:07:23.726Z,366.30
2018-06-27T01:08:23.990Z,377.50
2018-06-27T01:09:23.839Z,381.30
2018-06-27T01:10:23.877Z,370.90
2018-06-27T01:11:23.918Z,387.80
2018-06-27T01:12:23.993Z,374.50
2018-06-27T01:13:24.017Z,371.30
2018-06-27T01:14:24.080Z,386.00
2018-06-27T01:15:24.107Z,358.60
2018-06-27T01:16:24.138Z,353.00
2018-06-27T01:17:24.202Z,345.70
2018-06-27T01:18:24.249Z,350.00
2018-06-27T01:19:24.279Z,354.30
2018-06-27T01:20:24.337Z,352.80
2018-06-27T01:21:24.389Z,350.10
2018-06-27T01:22:24.437Z,345.80
2018-06-27T01:23:24.484Z,349.70
2018-06-27T01:24:24.497Z,352.40
2018-06-27T01:25:24.575Z,352.30
2018-06-27T01:26:24.595Z,335.10
2018-06-27T01:27:24.653Z,325.80
2018-06-27T01:28:24.697Z,340.90
2018-06-27T01:29:24.725Z,334.50
2018-06-27T01:30:24.777Z,348.20
2018-06-27T01:31:24.810Z,343.60
2018-06-27T01:32:24.882Z,344.00
2018-06-27T01:33:24.929Z,364.90
2018-06-27T01:34:24.958Z,368.30
2018-06-27T01:35:25.021Z,378.00
2018-06-27T01:36:25.027Z,369.70
2018-06-27T01:37:25.119Z,370.90
2018-06-27T01:38:25.150Z,376.20
2018-06-27T01:39:25.182Z,370.40
2018-06-27T01:40:25.237Z,377.60
2018-06-27T01:41:25.285Z,369.50
2018-06-27T01:42:25.351Z,386.50
2018-06-27T01:43:25.365Z,378.00
2018-06-27T01:44:25.416Z,374.90
2018-06-27T01:45:25.445Z,355.90
2018-06-27T01:46:25.497Z,346.00
2018-06-27T01:47:25.730Z,357.30
2018-06-27T01:48:25.584Z,323.10
2018-06-27T01:49:25.631Z,328.80
2018-06-27T01:50:25.684Z,303.80
2018-06-27T01:51:25.759Z,315.40
2018-06-27T01:52:25.825Z,262.00
2018-06-27T01:53:25.819Z,292.80
2018-06-27T01:54:25.878Z,299.60
2018-06-27T01:55:25.933Z,290.80
2018-06-27T01:56:25.970Z,282.60
2018-06-27T01:57:26.010Z,280.80
2018-06-27T01:58:26.060Z,296.30
2018-06-27T01:59:26.071Z,280.40
2018-06-27T02:00:26.147Z,270.00
2018-06-27T02:01:26.205Z,286.00
2018-06-27T02:02:26.256Z,297.30
2018-06-27T02:03:26.299Z,296.90
2018-06-27T02:04:26.341Z,280.60
2018-06-27T02:05:26.366Z,292.60
2018-06-27T02:06:26.391Z,285.80
2018-06-27T02:07:26.447Z,285.50
2018-06-27T02:08:26.493Z,291.30
2018-06-27T02:09:26.562Z,299.40
2018-06-27T02:10:26.605Z,309.90
2018-06-27T02:11:26.619Z,310.30
2018-06-27T02:12:26.680Z,319.70
2018-06-27T02:13:26.710Z,319.10
2018-06-27T02:14:26.764Z,299.00
2018-06-27T02:15:26.797Z,309.40
2018-06-27T02:16:27.166Z,301.10
2018-06-27T02:17:26.914Z,302.30
2018-06-27T02:18:26.942Z,329.10
2018-06-27T02:19:27.001Z,306.50
2018-06-27T02:20:27.036Z,333.60
2018-06-27T02:21:27.083Z,326.80
2018-06-27T02:22:27.356Z,323.30
2018-06-27T02:23:27.194Z,331.80
2018-06-27T02:24:27.266Z,339.30
2018-06-27T02:25:27.268Z,354.90
2018-06-27T02:26:27.301Z,353.70
2018-06-27T02:27:27.360Z,367.50
2018-06-27T02:28:27.395Z,369.30
2018-06-27T02:29:27.448Z,408.50
2018-06-27T02:30:27.490Z,441.30
2018-06-27T02:31:27.536Z,420.80
2018-06-27T02:32:27.605Z,393.30
2018-06-27T02:33:27.609Z,382.00
2018-06-27T02:34:27.669Z,375.20
2018-06-27T02:35:27.750Z,348.30
2018-06-27T02:36:27.776Z,347.80
2018-06-27T02:37:28.025Z,196.60
2018-06-27T02:38:27.871Z,115.80
2018-06-27T02:39:27.876Z,123.20
2018-06-27T02:40:27.931Z,108.30
2018-06-27T02:41:27.986Z,116.40
2018-06-27T02:42:28.015Z,123.00
2018-06-27T02:43:28.087Z,131.00
2018-06-27T02:44:28.126Z,117.90
2018-06-27T02:45:28.188Z,113.50
2018-06-27T02:46:28.217Z,113.30
2018-06-27T02:47:28.287Z,116.40
2018-06-27T02:48:28.506Z,110.90
2018-06-27T02:49:28.345Z,104.70
2018-06-27T02:50:28.393Z,103.20
2018-06-27T02:51:28.418Z,106.50
2018-06-27T02:52:28.476Z,117.00
2018-06-27T02:53:28.535Z,106.20
2018-06-27T02:54:28.585Z,108.70
2018-06-27T02:55:28.604Z,108.50
2018-06-27T02:56:28.667Z,112.80
2018-06-27T02:57:28.727Z,108.60
2018-06-27T02:58:28.733Z,118.40
2018-06-27T02:59:28.799Z,124.50
2018-06-27T03:00:28.834Z,125.00
2018-06-27T03:01:28.873Z,116.20
2018-06-27T03:02:28.954Z,126.80
2018-06-27T03:03:28.950Z,129.80
2018-06-27T03:04:29.027Z,141.20
2018-06-27T03:05:29.070Z,131.20
2018-06-27T03:06:29.098Z,138.50
2018-06-27T03:07:29.182Z,145.30
2018-06-27T03:08:29.194Z,146.90
2018-06-27T03:09:29.244Z,144.60
2018-06-27T03:10:29.290Z,143.10
2018-06-27T03:11:29.344Z,157.50
2018-06-27T03:12:29.387Z,170.20
2018-06-27T03:13:29.426Z,168.70
2018-06-27T03:14:29.456Z,171.40
2018-06-27T03:15:29.502Z,195.00
2018-06-27T03:16:29.572Z,198.90
2018-06-27T03:17:29.621Z,206.50
2018-06-27T03:18:29.706Z,216.70
2018-06-27T03:19:29.691Z,265.60
2018-06-27T03:20:30.034Z,178.00
2018-06-27T03:21:29.781Z,191.90
2018-06-27T03:22:29.831Z,429.00
2018-06-27T03:23:29.854Z,377.90
2018-06-27T03:24:29.910Z,370.40
2018-06-27T03:25:29.984Z,355.90
2018-06-27T03:26:30.004Z,341.70
2018-06-27T03:27:30.048Z,336.60
2018-06-27T03:28:30.081Z,333.80
2018-06-27T03:29:30.117Z,338.30
2018-06-27T03:30:30.173Z,318.10
2018-06-27T03:31:30.203Z,305.70
2018-06-27T03:32:30.480Z,302.30
2018-06-27T03:33:30.316Z,302.60
2018-06-27T03:34:30.352Z,288.70
2018-06-27T03:35:30.381Z,287.90
2018-06-27T03:36:30.469Z,279.40
2018-06-27T03:37:30.501Z,285.50
2018-06-27T03:38:30.547Z,283.50
2018-06-27T03:39:30.594Z,274.60
2018-06-27T03:40:30.637Z,275.20
2018-06-27T03:41:30.671Z,280.90
2018-06-27T03:42:30.719Z,277.40
2018-06-27T03:43:30.785Z,295.90
2018-06-27T03:44:30.817Z,292.20
2018-06-27T03:45:30.847Z,308.40
2018-06-27T03:46:30.894Z,332.00
2018-06-27T03:47:30.911Z,296.20
2018-06-27T03:48:31.208Z,327.70
2018-06-27T03:49:31.030Z,325.00
2018-06-27T03:50:31.055Z,322.20
2018-06-27T03:51:31.110Z,356.00
2018-06-27T03:52:31.153Z,333.00
2018-06-27T03:53:31.194Z,260.20
2018-06-27T03:54:31.232Z,263.50
2018-06-27T03:55:31.308Z,241.20
2018-06-27T03:56:31.336Z,233.90
2018-06-27T03:57:31.372Z,253.90
2018-06-27T03:58:31.416Z,209.00
2018-06-27T03:59:31.659Z,189.50
2018-06-27T04:00:31.524Z,183.30
2018-06-27T04:01:31.543Z,158.20
2018-06-27T04:02:31.606Z,180.10
2018-06-27T04:03:31.667Z,184.50
2018-06-27T04:04:31.672Z,190.70
2018-06-27T04:05:31.737Z,172.40
2018-06-27T04:06:31.782Z,173.10
2018-06-27T04:07:31.806Z,193.60
2018-06-27T04:08:31.873Z,214.60
2018-06-27T04:09:31.921Z,179.80
2018-06-27T04:10:31.983Z,174.80
2018-06-27T04:11:31.980Z,199.10
2018-06-27T04:12:32.072Z,189.30
2018-06-27T04:13:32.083Z,186.90
2018-06-27T04:14:32.171Z,175.50
2018-06-27T04:15:32.193Z,179.80
2018-06-27T04:16:32.236Z,178.20
2018-06-27T04:17:32.266Z,171.90
2018-06-27T04:18:32.306Z,160.90
2018-06-27T04:19:32.347Z,166.40
2018-06-27T04:20:32.382Z,233.30
2018-06-27T04:21:32.709Z,265.50
2018-06-27T04:22:32.480Z,143.00
2018-06-27T04:23:32.505Z,143.20
2018-06-27T04:24:32.575Z,149.90
2018-06-27T04:25:32.593Z,167.20
2018-06-27T04:26:32.664Z,169.20
2018-06-27T04:27:32.722Z,161.50
2018-06-27T04:28:32.752Z,164.00
2018-06-27T04:29:32.784Z,193.50
2018-06-27T04:30:32.854Z,189.30
2018-06-27T04:31:32.877Z,165.90
2018-06-27T04:32:33.187Z,163.00
2018-06-27T04:33:32.983Z,174.50
2018-06-27T04:34:33.021Z,178.50
2018-06-27T04:35:33.053Z,258.70
2018-06-27T04:36:33.100Z,302.70
2018-06-27T04:37:33.125Z,303.80
2018-06-27T04:38:33.187Z,330.80
2018-06-27T04:39:33.234Z,321.40
2018-06-27T04:40:33.280Z,377.60
2018-06-27T04:41:33.344Z,423.60
2018-06-27T04:42:33.386Z,465.20
2018-06-27T04:43:33.618Z,506.20
2018-06-27T04:44:33.456Z,563.90
2018-06-27T04:45:33.484Z,603.60
2018-06-27T04:46:33.566Z,628.50
2018-06-27T04:47:33.596Z,623.30
2018-06-27T04:48:33.635Z,632.00
2018-06-27T04:49:33.710Z,654.90
2018-06-27T04:50:33.718Z,644.90
2018-06-27T04:51:33.773Z,637.40
2018-06-27T04:52:33.824Z,655.70
2018-06-27T04:53:33.860Z,663.50
2018-06-27T04:54:34.089Z,656.20
2018-06-27T04:55:33.942Z,659.00
2018-06-27T04:56:33.969Z,672.30
2018-06-27T04:57:34.037Z,682.50
2018-06-27T04:58:34.073Z,604.30
2018-06-27T04:59:34.115Z,617.40
2018-06-27T05:00:34.160Z,568.50
2018-06-27T05:01:34.213Z,582.10
2018-06-27T05:02:34.232Z,560.60
2018-06-27T05:03:34.295Z,560.00
2018-06-27T05:04:34.315Z,498.30
2018-06-27T05:05:34.377Z,479.50
2018-06-27T05:06:34.389Z,502.00
2018-06-27T05:07:34.511Z,479.80
2018-06-27T05:08:34.501Z,511.70
2018-06-27T05:09:34.546Z,448.10
2018-06-27T05:10:34.789Z,436.40
2018-06-27T05:11:34.664Z,413.80
2018-06-27T05:12:34.687Z,412.50
2018-06-27T05:13:34.723Z,406.90
2018-06-27T05:14:34.754Z,384.20
2018-06-27T05:15:34.778Z,419.70
2018-06-27T05:16:34.848Z,409.90
2018-06-27T05:17:34.892Z,355.50
2018-06-27T05:18:34.939Z,345.70
2018-06-27T05:19:34.963Z,345.70
2018-06-27T05:20:35.017Z,347.40
2018-06-27T05:21:35.057Z,333.20
2018-06-27T05:22:35.300Z,339.10
2018-06-27T05:23:35.134Z,347.40
2018-06-27T05:24:35.185Z,360.00
2018-06-27T05:25:35.251Z,309.50
2018-06-27T05:26:35.290Z,300.70
2018-06-27T05:27:35.411Z,284.60
2018-06-27T05:28:35.378Z,273.50
2018-06-27T05:29:35.384Z,236.30
2018-06-27T05:30:35.433Z,264.10
2018-06-27T05:31:35.485Z,277.40
2018-06-27T05:32:35.586Z,268.00
2018-06-27T05:33:35.813Z,260.40
2018-06-27T05:34:35.600Z,239.00
2018-06-27T05:35:35.683Z,244.40
2018-06-27T05:36:35.696Z,226.50
2018-06-27T05:37:35.748Z,241.60
2018-06-27T05:38:35.800Z,220.00
2018-06-27T05:39:35.824Z,223.00
2018-06-27T05:40:35.890Z,187.20
2018-06-27T05:41:35.921Z,182.00
2018-06-27T05:42:35.969Z,187.30
2018-06-27T05:43:35.995Z,186.00
2018-06-27T05:44:36.050Z,174.70
2018-06-27T05:45:36.105Z,176.20
2018-06-27T05:46:36.127Z,170.90
2018-06-27T05:47:36.191Z,165.00
2018-06-27T05:48:36.418Z,159.40
2018-06-27T05:49:36.256Z,162.50
2018-06-27T05:50:36.319Z,178.50
2018-06-27T05:51:36.360Z,174.00
2018-06-27T05:52:36.388Z,170.80
2018-06-27T05:53:36.452Z,165.10
2018-06-27T05:54:36.474Z,167.60
2018-06-27T05:55:36.536Z,184.10
2018-06-27T05:56:36.595Z,200.30
2018-06-27T05:57:36.588Z,206.80
2018-06-27T05:58:36.673Z,227.10
2018-06-27T05:59:36.696Z,239.30
2018-06-27T06:00:36.930Z,260.20
2018-06-27T06:01:36.783Z,303.70
2018-06-27T06:02:36.822Z,326.10
2018-06-27T06:03:36.885Z,351.00
2018-06-27T06:04:36.927Z,356.10
2018-06-27T06:05:36.987Z,347.40
2018-06-27T06:06:37.016Z,361.60
2018-06-27T06:07:37.049Z,389.30
2018-06-27T06:08:37.091Z,374.40
2018-06-27T06:09:37.139Z,349.00
2018-06-27T06:10:37.180Z,340.90
2018-06-27T06:11:37.504Z,322.70
2018-06-27T06:12:37.246Z,279.30
2018-06-27T06:13:37.302Z,266.90
2018-06-27T06:14:37.343Z,259.50
2018-06-27T06:15:37.396Z,223.80
2018-06-27T06:16:37.466Z,222.50
2018-06-27T06:17:37.493Z,224.50
2018-06-27T06:18:37.545Z,256.90
2018-06-27T06:19:37.636Z,282.60
2018-06-27T06:20:37.606Z,290.60
2018-06-27T06:21:37.649Z,292.90
2018-06-27T06:22:37.695Z,317.00
2018-06-27T06:23:37.729Z,365.10
2018-06-27T06:24:37.815Z,395.10
2018-06-27T06:25:37.822Z,387.20
2018-06-27T06:26:37.899Z,375.30
2018-06-27T06:27:38.149Z,398.50
2018-06-27T06:28:37.977Z,379.70
2018-06-27T06:29:37.988Z,403.80
2018-06-27T06:30:38.028Z,393.70
2018-06-27T06:31:38.069Z,410.70
2018-06-27T06:32:38.140Z,416.20
2018-06-27T06:33:38.181Z,436.50
2018-06-27T06:34:38.253Z,449.60
2018-06-27T06:35:38.275Z,455.50
2018-06-27T06:36:38.297Z,444.00
2018-06-27T06:37:38.344Z,447.70
2018-06-27T06:38:38.409Z,455.10
2018-06-27T06:39:38.695Z,449.40
2018-06-27T06:40:38.511Z,459.80
2018-06-27T06:41:38.533Z,393.60
2018-06-27T06:42:38.586Z,434.80
2018-06-27T06:43:38.621Z,392.90
2018-06-27T06:44:38.632Z,332.40
2018-06-27T06:45:38.687Z,392.00
2018-06-27T06:46:38.742Z,403.10
2018-06-27T06:47:38.835Z,395.70
2018-06-27T06:48:38.818Z,448.70
2018-06-27T06:49:38.876Z,429.50
2018-06-27T06:50:38.915Z,398.60
2018-06-27T06:51:38.971Z,410.50
2018-06-27T06:52:38.988Z,405.20
2018-06-27T06:53:39.040Z,380.10
2018-06-27T06:54:39.087Z,449.60
2018-06-27T06:55:39.113Z,448.30
2018-06-27T06:56:39.158Z,450.50
2018-06-27T06:57:39.224Z,475.90
2018-06-27T06:58:39.276Z,484.20
2018-06-27T06:59:39.316Z,482.30
2018-06-27T07:00:39.336Z,453.40
2018-06-27T07:01:39.371Z,548.10
2018-06-27T07:02:39.635Z,538.30
2018-06-27T07:03:39.490Z,581.80
2018-06-27T07:04:39.505Z,554.40
2018-06-27T07:05:39.543Z,531.10
2018-06-27T07:06:39.592Z,543.20
2018-06-27T07:07:39.635Z,559.60
2018-06-27T07:08:39.689Z,550.70
2018-06-27T07:09:39.732Z,549.90
2018-06-27T07:10:39.781Z,524.30
2018-06-27T07:11:39.793Z,547.60
2018-06-27T07:12:39.882Z,524.90
2018-06-27T07:13:40.101Z,516.60
2018-06-27T07:14:39.939Z,454.50
2018-06-27T07:15:39.965Z,461.80
2018-06-27T07:16:40.030Z,441.30
2018-06-27T07:17:40.085Z,419.00
2018-06-27T07:18:40.116Z,400.60
2018-06-27T07:19:40.144Z,399.70
2018-06-27T07:20:40.212Z,418.10
2018-06-27T07:21:40.261Z,397.70
2018-06-27T07:22:40.268Z,387.30
2018-06-27T07:23:40.342Z,410.20
2018-06-27T07:24:40.621Z,460.80
2018-06-27T07:25:40.411Z,477.50
2018-06-27T07:26:40.474Z,450.80
2018-06-27T07:27:40.503Z,501.20
2018-06-27T07:28:40.671Z,503.20
2018-06-27T07:29:40.574Z,518.70
2018-06-27T07:30:40.658Z,438.20
2018-06-27T07:31:40.673Z,544.80
2018-06-27T07:32:40.739Z,502.10
2018-06-27T07:33:40.787Z,532.60
2018-06-27T07:34:40.810Z,586.80
2018-06-27T07:35:40.809Z,552.30
2018-06-27T07:36:41.108Z,577.20
2018-06-27T07:37:40.938Z,515.20
2018-06-27T07:38:40.989Z,571.20
2018-06-27T07:39:41.039Z,604.30
2018-06-27T07:40:41.061Z,638.80
2018-06-27T07:41:41.101Z,655.00
2018-06-27T07:42:41.149Z,680.90
2018-06-27T07:43:41.209Z,641.10
2018-06-27T07:44:41.215Z,582.50
2018-06-27T07:45:41.260Z,563.70
2018-06-27T07:46:41.313Z,475.60
2018-06-27T07:47:41.374Z,587.20
2018-06-27T07:48:41.595Z,611.30
2018-06-27T07:49:41.490Z,594.90
2018-06-27T07:50:41.517Z,610.60
2018-06-27T07:51:41.530Z,620.80
2018-06-27T07:52:41.584Z,687.50
2018-06-27T07:53:41.632Z,679.30
2018-06-27T07:54:41.700Z,680.20
2018-06-27T07:55:41.731Z,711.40
2018-06-27T07:56:41.762Z,697.70
2018-06-27T07:57:41.804Z,684.90
2018-06-27T07:58:41.849Z,711.10
2018-06-27T07:59:41.864Z,697.10
2018-06-27T08:00:42.106Z,687.60
2018-06-27T08:01:41.960Z,673.70
2018-06-27T08:02:42.003Z,666.10
2018-06-27T08:03:42.076Z,645.50
2018-06-27T08:04:42.070Z,655.30
2018-06-27T08:05:42.138Z,616.90
2018-06-27T08:06:42.190Z,595.90
2018-06-27T08:07:42.236Z,627.10
2018-06-27T08:08:42.280Z,646.30
2018-06-27T08:09:42.332Z,618.50
2018-06-27T08:10:42.355Z,604.80
2018-06-27T08:11:42.429Z,590.00
2018-06-27T08:12:42.725Z,605.50
2018-06-27T08:13:42.476Z,575.80
2018-06-27T08:14:42.518Z,590.50
2018-06-27T08:15:42.548Z,598.40
2018-06-27T08:16:42.621Z,575.90
2018-06-27T08:17:42.651Z,584.00
2018-06-27T08:18:42.694Z,579.20
2018-06-27T08:19:42.742Z,588.50
2018-06-27T08:20:42.786Z,565.70
2018-06-27T08:21:42.846Z,585.90
2018-06-27T08:22:42.895Z,603.40
2018-06-27T08:23:43.102Z,581.30
2018-06-27T08:24:42.978Z,578.00
2018-06-27T08:25:42.992Z,539.60
2018-06-27T08:26:43.040Z,550.20
2018-06-27T08:27:43.091Z,549.40
2018-06-27T08:28:43.133Z,547.80
2018-06-27T08:29:43.191Z,421.30
2018-06-27T08:30:43.213Z,369.50
2018-06-27T08:31:43.253Z,323.40
2018-06-27T08:32:43.322Z,266.20
2018-06-27T08:33:43.325Z,221.90
2018-06-27T08:34:43.370Z,206.10
2018-06-27T08:35:43.664Z,217.80
2018-06-27T08:36:43.480Z,205.50
2018-06-27T08:37:43.534Z,222.30
2018-06-27T08:38:43.566Z,256.00
2018-06-27T08:39:43.604Z,282.60
2018-06-27T08:40:43.643Z,277.90
2018-06-27T08:41:43.682Z,301.30
2018-06-27T08:42:43.735Z,290.80
2018-06-27T08:43:43.796Z,245.20
2018-06-27T08:44:43.821Z,265.10
2018-06-27T08:45:43.859Z,277.90
2018-06-27T08:46:43.874Z,301.90
2018-06-27T08:47:43.930Z,307.60
2018-06-27T08:48:43.964Z,289.10
2018-06-27T08:49:44.025Z,286.50
2018-06-27T08:50:44.078Z,239.90
2018-06-27T08:51:44.097Z,221.10
2018-06-27T08:52:44.434Z,220.60
2018-06-27T08:53:44.183Z,221.10
2018-06-27T08:54:44.253Z,277.60
2018-06-27T08:55:44.276Z,348.20
2018-06-27T08:56:44.325Z,399.40
2018-06-27T08:57:44.358Z,456.90
2018-06-27T08:58:44.455Z,384.10
2018-06-27T08:59:44.463Z,482.00
2018-06-27T09:00:44.490Z,524.00
2018-06-27T09:01:44.528Z,563.90
2018-06-27T09:02:44.585Z,593.10
2018-06-27T09:03:44.612Z,581.00
2018-06-27T09:04:44.879Z,593.80
2018-06-27T09:05:44.717Z,593.40
2018-06-27T09:06:44.777Z,615.00
2018-06-27T09:07:44.813Z,607.00
2018-06-27T09:08:44.848Z,614.60
2018-06-27T09:09:44.862Z,589.60
2018-06-27T09:10:44.954Z,617.10
2018-06-27T09:11:44.949Z,602.10
2018-06-27T09:12:45.007Z,602.70
2018-06-27T09:13:45.049Z,587.40
2018-06-27T09:14:45.074Z,616.80
2018-06-27T09:15:45.383Z,592.10
2018-06-27T09:16:45.175Z,600.30
2018-06-27T09:17:45.248Z,590.50
2018-06-27T09:18:45.270Z,595.80
2018-06-27T09:19:45.324Z,585.40
2018-06-27T09:20:45.333Z,572.00
2018-06-27T09:21:45.416Z,560.20
2018-06-27T09:22:45.440Z,523.30
2018-06-27T09:23:45.487Z,502.60
2018-06-27T09:24:45.510Z,483.00
2018-06-27T09:25:45.579Z,523.10
2018-06-27T09:26:45.800Z,541.00
2018-06-27T09:27:45.635Z,585.40
2018-06-27T09:28:45.723Z,568.50
2018-06-27T09:29:45.760Z,534.00
2018-06-27T09:30:45.783Z,541.50
2018-06-27T09:31:45.808Z,566.20
2018-06-27T09:32:45.864Z,531.80
2018-06-27T09:33:45.904Z,562.90
2018-06-27T09:34:45.946Z,545.60
2018-06-27T09:35:46.003Z,536.20
2018-06-27T09:36:46.051Z,519.70
2018-06-27T09:37:46.073Z,527.80
2018-06-27T09:38:46.358Z,536.10
2018-06-27T09:39:46.155Z,540.30
2018-06-27T09:40:46.219Z,520.40
2018-06-27T09:41:46.260Z,528.90
2018-06-27T09:42:46.316Z,517.00
2018-06-27T09:43:46.358Z,519.40
2018-06-27T09:44:46.374Z,534.80
2018-06-27T09:45:46.447Z,527.60
2018-06-27T09:46:46.471Z,481.00
2018-06-27T09:47:46.525Z,524.10
2018-06-27T09:48:46.549Z,530.80
2018-06-27T09:49:46.583Z,540.00
2018-06-27T09:50:46.653Z,522.10
2018-06-27T09:51:46.658Z,469.10
2018-06-27T09:52:46.733Z,501.60
2018-06-27T09:53:46.795Z,532.70
2018-06-27T09:54:46.806Z,511.90
2018-06-27T09:55:46.854Z,517.50
2018-06-27T09:56:46.897Z,500.50
2018-06-27T09:57:46.963Z,473.50
2018-06-27T09:58:46.991Z,484.30
2018-06-27T09:59:47.031Z,477.70
2018-06-27T10:00:47.076Z,444.70
2018-06-27T10:01:47.108Z,410.40
2018-06-27T10:02:47.156Z,438.00
2018-06-27T10:03:47.212Z,388.10
2018-06-27T10:04:47.236Z,164.80
2018-06-27T10:05:47.310Z,188.40
2018-06-27T10:06:47.324Z,182.90
2018-06-27T10:07:47.430Z,222.90
2018-06-27T10:08:47.429Z,318.60
2018-06-27T10:09:47.454Z,305.50
2018-06-27T10:10:47.495Z,320.50
2018-06-27T10:11:47.554Z,308.50
2018-06-27T10:12:47.601Z,322.80
2018-06-27T10:13:47.634Z,302.50
2018-06-27T10:14:47.692Z,283.10
2018-06-27T10:15:47.719Z,266.50
2018-06-27T10:16:47.746Z,265.00
2018-06-27T10:17:47.795Z,252.80
2018-06-27T10:18:47.836Z,249.10
2018-06-27T10:19:47.913Z,235.50
2018-06-27T10:20:47.908Z,214.90
2018-06-27T10:21:47.977Z,186.90
2018-06-27T10:22:48.103Z,180.00
2018-06-27T10:23:48.073Z,193.70
2018-06-27T10:24:48.104Z,160.50
2018-06-27T10:25:48.132Z,169.00
2018-06-27T10:26:48.197Z,169.60
2018-06-27T10:27:48.225Z,173.50
2018-06-27T10:28:48.277Z,185.10
2018-06-27T10:29:48.318Z,179.70
2018-06-27T10:30:48.341Z,187.30
2018-06-27T10:31:48.408Z,204.10
2018-06-27T10:32:48.480Z,201.80
2018-06-27T10:33:48.493Z,201.50
2018-06-27T10:34:48.561Z,223.60
2018-06-27T10:35:48.651Z,219.80
2018-06-27T10:36:48.647Z,220.40
2018-06-27T10:37:48.652Z,235.90
2018-06-27T10:38:48.717Z,213.60
2018-06-27T10:39:48.775Z,204.20
2018-06-27T10:40:48.799Z,210.50
2018-06-27T10:41:48.847Z,206.50
2018-06-27T10:42:48.885Z,207.40
2018-06-27T10:43:48.956Z,174.80
2018-06-27T10:44:48.979Z,195.10
2018-06-27T10:45:49.021Z,141.20
2018-06-27T10:46:49.054Z,159.50
2018-06-27T10:47:49.100Z,143.20
2018-06-27T10:48:49.128Z,142.50
2018-06-27T10:49:49.192Z,149.70
2018-06-27T10:50:49.254Z,118.20
2018-06-27T10:51:49.290Z,126.10
2018-06-27T10:52:49.337Z,115.20
2018-06-27T10:53:49.363Z,120.90
2018-06-27T10:54:49.412Z,115.90
2018-06-27T10:55:49.461Z,141.10
2018-06-27T10:56:49.512Z,137.70
2018-06-27T10:57:49.545Z,115.00
2018-06-27T10:58:49.608Z,103.60
2018-06-27T10:59:49.638Z,108.20
2018-06-27T11:00:49.696Z,100.40
2018-06-27T11:01:49.717Z,106.20
2018-06-27T11:02:49.793Z,115.10
2018-06-27T11:03:49.796Z,103.70
2018-06-27T11:04:49.877Z,113.70
2018-06-27T11:05:49.910Z,130.80
2018-06-27T11:06:49.982Z,131.70
2018-06-27T11:07:50.014Z,142.60
2018-06-27T11:08:50.053Z,131.30
2018-06-27T11:09:50.125Z,132.00
2018-06-27T11:10:50.143Z,123.90
2018-06-27T11:11:50.198Z,132.40
2018-06-27T11:12:50.235Z,155.00
2018-06-27T11:13:50.275Z,158.10
2018-06-27T11:14:50.334Z,160.80
2018-06-27T11:15:50.405Z,178.20
2018-06-27T11:16:50.417Z,181.00
2018-06-27T11:17:50.487Z,210.60
2018-06-27T11:18:50.511Z,212.40
2018-06-27T11:19:50.552Z,210.10
2018-06-27T11:20:50.621Z,197.70
2018-06-27T11:21:50.664Z,223.40
2018-06-27T11:22:50.691Z,215.20
2018-06-27T11:23:50.749Z,198.20
2018-06-27T11:24:50.819Z,208.00
2018-06-27T11:25:50.828Z,187.00
2018-06-27T11:26:50.925Z,199.10
2018-06-27T11:27:50.953Z,159.80
2018-06-27T11:28:50.950Z,164.60
2018-06-27T11:29:51.025Z,142.40
2018-06-27T11:30:51.076Z,138.60
2018-06-27T11:31:51.118Z,137.20
2018-06-27T11:32:51.237Z,133.00
2018-06-27T11:33:51.184Z,126.60
2018-06-27T11:34:51.289Z,108.50
2018-06-27T11:35:51.286Z,101.40
2018-06-27T11:36:51.371Z,91.90
2018-06-27T11:37:51.404Z,88.80
2018-06-27T11:38:51.525Z,91.10
2018-06-27T11:39:51.500Z,85.80
2018-06-27T11:40:51.535Z,80.10
2018-06-27T11:41:51.598Z,70.60
2018-06-27T11:42:51.642Z,73.00
2018-06-27T11:43:51.667Z,79.60
2018-06-27T11:44:51.709Z,286.60
2018-06-27T11:45:51.749Z,304.60
2018-06-27T11:46:51.815Z,279.80
2018-06-27T11:47:51.880Z,311.90
2018-06-27T11:48:51.907Z,316.30
2018-06-27T11:49:51.964Z,300.10
2018-06-27T11:50:52.005Z,309.90
2018-06-27T11:51:52.058Z,159.80
2018-06-27T11:52:52.110Z,139.80
2018-06-27T11:53:52.158Z,143.80
2018-06-27T11:54:52.176Z,152.40
2018-06-27T11:55:52.249Z,146.10
2018-06-27T11:56:52.304Z,175.70
2018-06-27T11:57:52.344Z,217.10
2018-06-27T11:58:52.395Z,221.20
2018-06-27T11:59:52.442Z,179.70
2018-06-27T12:00:52.514Z,189.10
2018-06-27T12:01:52.522Z,219.50
2018-06-27T12:02:52.591Z,205.80
2018-06-27T12:03:52.655Z,211.10
2018-06-27T12:04:52.704Z,210.10
2018-06-27T12:05:52.738Z,214.30
2018-06-27T12:06:52.784Z,212.60
2018-06-27T12:07:52.836Z,185.30
2018-06-27T12:08:52.891Z,177.30
2018-06-27T12:09:52.955Z,178.80
2018-06-27T12:10:53.021Z,191.40
2018-06-27T12:11:53.035Z,208.00
2018-06-27T12:12:53.107Z,217.10
2018-06-27T12:13:53.149Z,228.20
2018-06-27T12:14:53.171Z,245.70
2018-06-27T12:15:53.247Z,235.20
2018-06-27T12:16:53.367Z,235.40
2018-06-27T12:17:53.349Z,247.50
2018-06-27T12:18:53.406Z,231.60
2018-06-27T12:19:53.456Z,234.10
2018-06-27T12:20:53.535Z,234.30
2018-06-27T12:21:53.567Z,212.70
2018-06-27T12:22:53.608Z,227.70
2018-06-27T12:23:53.719Z,209.10
2018-06-27T12:24:53.711Z,217.70
2018-06-27T12:25:53.750Z,229.50
2018-06-27T12:26:53.819Z,231.10
2018-06-27T12:27:53.898Z,225.80
2018-06-27T12:28:53.934Z,244.20